首页
METAR-TAF:

METAR-TAF

机场 :

Mission Field

利文斯顿, 蒙大拿州, 美国

纬度: 45-41-58N, 经度: 110-26-54W, 海拔: 1419米

当前天气观测

该预报发布于47分钟前的06:53 UTC
风速4节,风向
温度 19°C
湿度 46%
气压 1024 hPa
能見度: 12.9公里
天空无云

METAR: KLVM 220653Z AUTO 10004KT 8SM CLR 19/07 A3024 RMK AO2 SLP187 T01890072 403220094

时间: 01:40 (07:40 UTC)

预报

该预报发布于2小时和20分钟前的05:20 UTC
预报有效从22日的 06点(UTC)到 23日的 06点(UTC)
风速6节,风向多变
能見度: 10公里
天空无云
从 22日的 1800点(UTC)
风速14节,风向
能見度: 10公里
少量云层高于10000英尺

TAF: KLVM 220520Z 2206/2306 VRB06KT P6SM SKC FM221800 09014KT P6SM FEW100

超过4000个机场的气象观测和天气预报(METAR&TAF报告)。

可查询的气象台以黄色和红色小点在地图上表示。

将鼠标移到小点上方,可查看气象台名称。

然后点击查看天气观测和预报。

如需切换地图:点击带黑十字的绿色按钮放大地图;点击带横线的绿色按钮缩小地图;或者点击绿色箭头查看邻近地区的地图。


METAR-TAF: